sensor_id;sensor_type;location;lat;lon;timestamp;P1;durP1;ratioP1;P2;durP2;ratioP2
15748;SDS011;7976;52.526;13.326;2023-04-19T00:00:14;10.27;;;3.35;;
15748;SDS011;7976;52.526;13.326;2023-04-19T00:02:42;10.30;;;3.42;;
15748;SDS011;7976;52.526;13.326;2023-04-19T00:05:09;9.38;;;3.53;;
15748;SDS011;7976;52.526;13.326;2023-04-19T00:07:38;9.30;;;3.17;;
15748;SDS011;7976;52.526;13.326;2023-04-19T00:10:06;10.77;;;3.83;;
15748;SDS011;7976;52.526;13.326;2023-04-19T00:12:34;8.48;;;2.65;;
15748;SDS011;7976;52.526;13.326;2023-04-19T00:15:01;11.25;;;3.20;;
15748;SDS011;7976;52.526;13.326;2023-04-19T00:17:28;11.57;;;3.45;;
15748;SDS011;7976;52.526;13.326;2023-04-19T00:19:55;12.52;;;3.70;;
15748;SDS011;7976;52.526;13.326;2023-04-19T00:22:22;9.68;;;3.17;;
15748;SDS011;7976;52.526;13.326;2023-04-19T00:24:51;12.30;;;3.15;;
15748;SDS011;7976;52.526;13.326;2023-04-19T00:27:18;7.60;;;2.25;;
15748;SDS011;7976;52.526;13.326;2023-04-19T00:29:45;9.48;;;2.67;;
15748;SDS011;7976;52.526;13.326;2023-04-19T00:32:12;9.48;;;2.58;;
15748;SDS011;7976;52.526;13.326;2023-04-19T00:34:40;8.98;;;2.83;;
15748;SDS011;7976;52.526;13.326;2023-04-19T00:37:07;8.80;;;2.70;;
15748;SDS011;7976;52.526;13.326;2023-04-19T00:39:35;9.45;;;3.10;;
15748;SDS011;7976;52.526;13.326;2023-04-19T00:42:05;10.30;;;2.65;;
15748;SDS011;7976;52.526;13.326;2023-04-19T00:44:31;8.00;;;2.40;;
15748;SDS011;7976;52.526;13.326;2023-04-19T00:46:58;8.20;;;2.20;;
15748;SDS011;7976;52.526;13.326;2023-04-19T00:49:26;10.68;;;2.80;;
15748;SDS011;7976;52.526;13.326;2023-04-19T00:51:53;9.07;;;2.58;;
15748;SDS011;7976;52.526;13.326;2023-04-19T00:54:20;11.93;;;2.80;;
15748;SDS011;7976;52.526;13.326;2023-04-19T00:56:48;8.23;;;2.58;;
15748;SDS011;7976;52.526;13.326;2023-04-19T00:59:17;8.05;;;2.45;;
15748;SDS011;7976;52.526;13.326;2023-04-19T01:01:44;10.75;;;2.70;;
15748;SDS011;7976;52.526;13.326;2023-04-19T01:04:11;9.43;;;2.75;;
15748;SDS011;7976;52.526;13.326;2023-04-19T01:06:38;9.13;;;2.45;;
15748;SDS011;7976;52.526;13.326;2023-04-19T01:09:09;11.00;;;2.58;;
15748;SDS011;7976;52.526;13.326;2023-04-19T01:11:39;10.00;;;2.60;;
15748;SDS011;7976;52.526;13.326;2023-04-19T01:14:06;7.25;;;2.58;;
15748;SDS011;7976;52.526;13.326;2023-04-19T01:16:34;8.98;;;2.80;;
15748;SDS011;7976;52.526;13.326;2023-04-19T01:19:01;9.55;;;2.75;;
15748;SDS011;7976;52.526;13.326;2023-04-19T01:21:28;8.20;;;2.17;;
15748;SDS011;7976;52.526;13.326;2023-04-19T01:23:57;9.23;;;2.70;;
15748;SDS011;7976;52.526;13.326;2023-04-19T01:26:25;8.77;;;2.50;;
15748;SDS011;7976;52.526;13.326;2023-04-19T01:28:52;7.43;;;2.45;;
15748;SDS011;7976;52.526;13.326;2023-04-19T01:31:19;7.63;;;2.67;;
15748;SDS011;7976;52.526;13.326;2023-04-19T01:33:46;9.32;;;2.75;;
15748;SDS011;7976;52.526;13.326;2023-04-19T01:36:13;9.82;;;3.03;;
15748;SDS011;7976;52.526;13.326;2023-04-19T01:38:40;8.30;;;2.60;;
15748;SDS011;7976;52.526;13.326;2023-04-19T01:41:09;8.50;;;2.67;;
15748;SDS011;7976;52.526;13.326;2023-04-19T01:43:36;9.18;;;2.50;;
15748;SDS011;7976;52.526;13.326;2023-04-19T01:46:03;9.18;;;2.75;;
15748;SDS011;7976;52.526;13.326;2023-04-19T01:48:30;9.15;;;2.97;;
15748;SDS011;7976;52.526;13.326;2023-04-19T01:50:58;10.90;;;2.75;;
15748;SDS011;7976;52.526;13.326;2023-04-19T01:53:25;8.15;;;2.53;;
15748;SDS011;7976;52.526;13.326;2023-04-19T01:55:51;11.48;;;2.80;;
15748;SDS011;7976;52.526;13.326;2023-04-19T01:58:20;10.85;;;2.70;;
15748;SDS011;7976;52.526;13.326;2023-04-19T02:00:46;10.13;;;2.70;;
15748;SDS011;7976;52.526;13.326;2023-04-19T02:03:13;7.15;;;2.47;;
15748;SDS011;7976;52.526;13.326;2023-04-19T02:05:41;8.68;;;2.92;;
15748;SDS011;7976;52.526;13.326;2023-04-19T02:08:07;9.35;;;2.50;;
15748;SDS011;7976;52.526;13.326;2023-04-19T02:10:34;9.60;;;2.50;;
15748;SDS011;7976;52.526;13.326;2023-04-19T02:13:01;11.63;;;2.60;;
15748;SDS011;7976;52.526;13.326;2023-04-19T02:15:29;9.00;;;2.67;;
15748;SDS011;7976;52.526;13.326;2023-04-19T02:17:56;8.60;;;2.58;;
15748;SDS011;7976;52.526;13.326;2023-04-19T02:20:24;7.70;;;2.55;;
15748;SDS011;7976;52.526;13.326;2023-04-19T02:22:51;9.35;;;2.60;;
15748;SDS011;7976;52.526;13.326;2023-04-19T02:25:17;9.63;;;2.25;;
15748;SDS011;7976;52.526;13.326;2023-04-19T02:27:44;9.43;;;2.83;;
15748;SDS011;7976;52.526;13.326;2023-04-19T02:30:11;7.28;;;2.50;;
15748;SDS011;7976;52.526;13.326;2023-04-19T02:32:40;11.50;;;2.90;;
15748;SDS011;7976;52.526;13.326;2023-04-19T02:35:07;8.98;;;2.65;;
15748;SDS011;7976;52.526;13.326;2023-04-19T02:37:34;9.23;;;2.70;;
15748;SDS011;7976;52.526;13.326;2023-04-19T02:40:01;7.88;;;2.67;;
15748;SDS011;7976;52.526;13.326;2023-04-19T02:42:29;9.68;;;2.40;;
15748;SDS011;7976;52.526;13.326;2023-04-19T02:44:56;10.25;;;2.70;;
15748;SDS011;7976;52.526;13.326;2023-04-19T02:47:23;8.65;;;2.53;;
15748;SDS011;7976;52.526;13.326;2023-04-19T02:49:51;10.15;;;2.67;;
15748;SDS011;7976;52.526;13.326;2023-04-19T02:52:18;10.10;;;2.55;;
15748;SDS011;7976;52.526;13.326;2023-04-19T02:54:45;8.07;;;2.50;;
15748;SDS011;7976;52.526;13.326;2023-04-19T02:57:12;10.07;;;2.90;;
15748;SDS011;7976;52.526;13.326;2023-04-19T02:59:40;11.57;;;2.85;;
15748;SDS011;7976;52.526;13.326;2023-04-19T03:02:07;7.60;;;2.10;;
15748;SDS011;7976;52.526;13.326;2023-04-19T03:04:34;8.35;;;2.35;;
15748;SDS011;7976;52.526;13.326;2023-04-19T03:07:02;8.85;;;2.40;;
15748;SDS011;7976;52.526;13.326;2023-04-19T03:09:30;6.68;;;2.20;;
15748;SDS011;7976;52.526;13.326;2023-04-19T03:11:57;8.90;;;2.28;;
15748;SDS011;7976;52.526;13.326;2023-04-19T03:14:23;9.43;;;3.03;;
15748;SDS011;7976;52.526;13.326;2023-04-19T03:16:51;6.93;;;2.00;;
15748;SDS011;7976;52.526;13.326;2023-04-19T03:19:17;7.28;;;2.17;;
15748;SDS011;7976;52.526;13.326;2023-04-19T03:21:49;8.13;;;2.30;;
15748;SDS011;7976;52.526;13.326;2023-04-19T03:24:18;7.57;;;2.20;;
15748;SDS011;7976;52.526;13.326;2023-04-19T03:26:49;9.35;;;2.22;;
15748;SDS011;7976;52.526;13.326;2023-04-19T03:29:20;11.80;;;3.65;;
15748;SDS011;7976;52.526;13.326;2023-04-19T03:31:53;10.73;;;2.50;;
15748;SDS011;7976;52.526;13.326;2023-04-19T03:34:20;9.00;;;2.13;;
15748;SDS011;7976;52.526;13.326;2023-04-19T03:36:48;8.85;;;1.95;;
15748;SDS011;7976;52.526;13.326;2023-04-19T03:39:14;6.10;;;2.10;;
15748;SDS011;7976;52.526;13.326;2023-04-19T03:41:46;8.85;;;2.60;;
15748;SDS011;7976;52.526;13.326;2023-04-19T03:44:19;10.23;;;2.33;;
15748;SDS011;7976;52.526;13.326;2023-04-19T03:46:46;8.40;;;1.98;;
15748;SDS011;7976;52.526;13.326;2023-04-19T03:49:16;6.10;;;1.95;;
15748;SDS011;7976;52.526;13.326;2023-04-19T03:51:47;9.05;;;2.50;;
15748;SDS011;7976;52.526;13.326;2023-04-19T03:54:14;8.70;;;2.50;;
15748;SDS011;7976;52.526;13.326;2023-04-19T03:56:41;9.68;;;2.13;;
15748;SDS011;7976;52.526;13.326;2023-04-19T03:59:09;9.35;;;2.33;;
15748;SDS011;7976;52.526;13.326;2023-04-19T04:01:38;8.68;;;1.92;;
15748;SDS011;7976;52.526;13.326;2023-04-19T04:04:06;11.27;;;2.63;;
15748;SDS011;7976;52.526;13.326;2023-04-19T04:06:33;7.38;;;2.40;;
15748;SDS011;7976;52.526;13.326;2023-04-19T04:09:00;7.35;;;2.47;;
15748;SDS011;7976;52.526;13.326;2023-04-19T04:11:28;7.80;;;1.95;;
15748;SDS011;7976;52.526;13.326;2023-04-19T04:13:56;8.68;;;2.67;;
15748;SDS011;7976;52.526;13.326;2023-04-19T04:16:27;8.27;;;2.00;;
15748;SDS011;7976;52.526;13.326;2023-04-19T04:18:54;9.25;;;3.20;;
15748;SDS011;7976;52.526;13.326;2023-04-19T04:21:24;5.78;;;1.95;;
15748;SDS011;7976;52.526;13.326;2023-04-19T04:23:51;8.13;;;2.13;;
15748;SDS011;7976;52.526;13.326;2023-04-19T04:26:26;9.30;;;2.60;;
15748;SDS011;7976;52.526;13.326;2023-04-19T04:29:10;8.70;;;2.20;;
15748;SDS011;7976;52.526;13.326;2023-04-19T04:31:40;8.00;;;2.30;;
15748;SDS011;7976;52.526;13.326;2023-04-19T04:34:07;9.77;;;2.25;;
15748;SDS011;7976;52.526;13.326;2023-04-19T04:36:37;7.20;;;2.38;;
15748;SDS011;7976;52.526;13.326;2023-04-19T04:39:06;7.60;;;2.30;;
15748;SDS011;7976;52.526;13.326;2023-04-19T04:41:35;9.43;;;2.40;;
15748;SDS011;7976;52.526;13.326;2023-04-19T04:44:06;8.10;;;2.13;;
15748;SDS011;7976;52.526;13.326;2023-04-19T04:46:34;9.35;;;2.50;;
15748;SDS011;7976;52.526;13.326;2023-04-19T04:49:02;10.00;;;2.30;;
15748;SDS011;7976;52.526;13.326;2023-04-19T04:51:29;9.45;;;2.13;;
15748;SDS011;7976;52.526;13.326;2023-04-19T04:53:57;11.30;;;2.30;;
15748;SDS011;7976;52.526;13.326;2023-04-19T04:56:25;9.45;;;2.55;;
15748;SDS011;7976;52.526;13.326;2023-04-19T04:58:51;7.38;;;2.15;;
15748;SDS011;7976;52.526;13.326;2023-04-19T05:01:26;7.53;;;2.33;;
15748;SDS011;7976;52.526;13.326;2023-04-19T05:03:52;7.57;;;1.98;;
15748;SDS011;7976;52.526;13.326;2023-04-19T05:06:21;7.95;;;2.13;;
15748;SDS011;7976;52.526;13.326;2023-04-19T05:08:47;9.10;;;2.30;;
15748;SDS011;7976;52.526;13.326;2023-04-19T05:11:20;12.27;;;2.53;;
15748;SDS011;7976;52.526;13.326;2023-04-19T05:13:47;10.85;;;2.65;;
15748;SDS011;7976;52.526;13.326;2023-04-19T05:16:14;9.80;;;2.50;;
15748;SDS011;7976;52.526;13.326;2023-04-19T05:18:43;10.80;;;2.35;;
15748;SDS011;7976;52.526;13.326;2023-04-19T05:21:10;6.72;;;2.13;;
15748;SDS011;7976;52.526;13.326;2023-04-19T05:23:39;10.27;;;2.90;;
15748;SDS011;7976;52.526;13.326;2023-04-19T05:26:07;10.90;;;2.40;;
15748;SDS011;7976;52.526;13.326;2023-04-19T05:28:36;8.70;;;2.40;;
15748;SDS011;7976;52.526;13.326;2023-04-19T05:31:08;8.98;;;2.40;;
15748;SDS011;7976;52.526;13.326;2023-04-19T05:33:54;11.18;;;2.33;;
15748;SDS011;7976;52.526;13.326;2023-04-19T05:36:21;7.30;;;1.90;;
15748;SDS011;7976;52.526;13.326;2023-04-19T05:38:51;8.63;;;2.50;;
15748;SDS011;7976;52.526;13.326;2023-04-19T05:41:19;10.45;;;2.42;;
15748;SDS011;7976;52.526;13.326;2023-04-19T05:43:46;7.55;;;2.13;;
15748;SDS011;7976;52.526;13.326;2023-04-19T05:46:13;9.68;;;2.15;;
15748;SDS011;7976;52.526;13.326;2023-04-19T05:48:39;10.15;;;2.47;;
15748;SDS011;7976;52.526;13.326;2023-04-19T05:51:25;9.77;;;2.30;;
15748;SDS011;7976;52.526;13.326;2023-04-19T05:54:13;9.30;;;2.03;;
15748;SDS011;7976;52.526;13.326;2023-04-19T05:56:44;9.55;;;2.05;;
15748;SDS011;7976;52.526;13.326;2023-04-19T05:59:11;6.10;;;1.80;;
15748;SDS011;7976;52.526;13.326;2023-04-19T06:01:38;11.35;;;2.20;;
15748;SDS011;7976;52.526;13.326;2023-04-19T06:04:05;8.95;;;2.20;;
15748;SDS011;7976;52.526;13.326;2023-04-19T06:06:32;10.18;;;2.00;;
15748;SDS011;7976;52.526;13.326;2023-04-19T06:08:59;8.20;;;1.80;;
15748;SDS011;7976;52.526;13.326;2023-04-19T06:11:27;7.88;;;2.25;;
15748;SDS011;7976;52.526;13.326;2023-04-19T06:13:55;8.60;;;2.10;;
15748;SDS011;7976;52.526;13.326;2023-04-19T06:16:22;10.35;;;2.45;;
15748;SDS011;7976;52.526;13.326;2023-04-19T06:18:49;9.40;;;2.70;;
15748;SDS011;7976;52.526;13.326;2023-04-19T06:21:16;9.15;;;2.50;;
15748;SDS011;7976;52.526;13.326;2023-04-19T06:23:42;12.52;;;2.10;;
15748;SDS011;7976;52.526;13.326;2023-04-19T06:26:09;8.00;;;2.03;;
15748;SDS011;7976;52.526;13.326;2023-04-19T06:28:37;8.52;;;2.50;;
15748;SDS011;7976;52.526;13.326;2023-04-19T06:31:04;7.43;;;1.83;;
15748;SDS011;7976;52.526;13.326;2023-04-19T06:33:31;10.82;;;2.50;;
15748;SDS011;7976;52.526;13.326;2023-04-19T06:35:58;7.85;;;2.03;;
15748;SDS011;7976;52.526;13.326;2023-04-19T06:38:25;8.80;;;1.88;;
15748;SDS011;7976;52.526;13.326;2023-04-19T06:40:51;6.75;;;1.88;;
15748;SDS011;7976;52.526;13.326;2023-04-19T06:43:18;8.20;;;2.00;;
15748;SDS011;7976;52.526;13.326;2023-04-19T06:45:46;7.63;;;2.22;;
15748;SDS011;7976;52.526;13.326;2023-04-19T06:48:13;6.60;;;2.10;;
15748;SDS011;7976;52.526;13.326;2023-04-19T06:50:40;12.02;;;2.15;;
15748;SDS011;7976;52.526;13.326;2023-04-19T06:53:07;9.45;;;1.90;;
15748;SDS011;7976;52.526;13.326;2023-04-19T06:55:34;8.88;;;1.95;;
15748;SDS011;7976;52.526;13.326;2023-04-19T06:58:00;6.53;;;2.25;;
15748;SDS011;7976;52.526;13.326;2023-04-19T07:00:27;13.45;;;2.55;;
15748;SDS011;7976;52.526;13.326;2023-04-19T07:02:55;8.93;;;2.17;;
15748;SDS011;7976;52.526;13.326;2023-04-19T07:05:23;9.30;;;1.90;;
15748;SDS011;7976;52.526;13.326;2023-04-19T07:07:50;8.27;;;1.80;;
15748;SDS011;7976;52.526;13.326;2023-04-19T07:10:17;6.20;;;1.70;;
15748;SDS011;7976;52.526;13.326;2023-04-19T07:12:44;11.45;;;2.10;;
15748;SDS011;7976;52.526;13.326;2023-04-19T07:15:11;7.70;;;1.98;;
15748;SDS011;7976;52.526;13.326;2023-04-19T07:17:38;8.23;;;2.03;;
15748;SDS011;7976;52.526;13.326;2023-04-19T07:20:07;7.93;;;2.20;;
15748;SDS011;7976;52.526;13.326;2023-04-19T07:22:34;8.00;;;2.00;;
15748;SDS011;7976;52.526;13.326;2023-04-19T07:25:01;7.30;;;1.80;;
15748;SDS011;7976;52.526;13.326;2023-04-19T07:27:28;7.75;;;1.95;;
15748;SDS011;7976;52.526;13.326;2023-04-19T07:29:55;6.95;;;1.90;;
15748;SDS011;7976;52.526;13.326;2023-04-19T07:32:21;8.40;;;2.05;;
15748;SDS011;7976;52.526;13.326;2023-04-19T07:34:48;8.98;;;2.15;;
15748;SDS011;7976;52.526;13.326;2023-04-19T07:37:17;8.63;;;2.60;;
15748;SDS011;7976;52.526;13.326;2023-04-19T07:39:44;12.15;;;2.20;;
15748;SDS011;7976;52.526;13.326;2023-04-19T07:42:11;7.82;;;2.17;;
15748;SDS011;7976;52.526;13.326;2023-04-19T07:44:38;9.30;;;1.83;;
15748;SDS011;7976;52.526;13.326;2023-04-19T07:47:05;8.93;;;2.05;;
15748;SDS011;7976;52.526;13.326;2023-04-19T07:49:32;10.05;;;2.20;;
15748;SDS011;7976;52.526;13.326;2023-04-19T07:51:59;7.95;;;1.85;;
15748;SDS011;7976;52.526;13.326;2023-04-19T07:54:28;8.88;;;2.20;;
15748;SDS011;7976;52.526;13.326;2023-04-19T07:56:56;10.38;;;2.05;;
15748;SDS011;7976;52.526;13.326;2023-04-19T07:59:23;8.38;;;2.20;;
15748;SDS011;7976;52.526;13.326;2023-04-19T08:01:50;7.95;;;2.20;;
15748;SDS011;7976;52.526;13.326;2023-04-19T08:04:17;10.85;;;2.28;;
15748;SDS011;7976;52.526;13.326;2023-04-19T08:06:44;9.60;;;2.08;;
15748;SDS011;7976;52.526;13.326;2023-04-19T08:09:11;7.78;;;2.35;;
15748;SDS011;7976;52.526;13.326;2023-04-19T08:11:39;9.45;;;2.13;;
15748;SDS011;7976;52.526;13.326;2023-04-19T08:14:07;10.60;;;2.60;;
15748;SDS011;7976;52.526;13.326;2023-04-19T08:16:33;9.57;;;2.03;;
15748;SDS011;7976;52.526;13.326;2023-04-19T08:19:01;5.90;;;1.73;;
15748;SDS011;7976;52.526;13.326;2023-04-19T08:21:29;6.25;;;1.98;;
15748;SDS011;7976;52.526;13.326;2023-04-19T08:24:04;8.35;;;2.22;;
15748;SDS011;7976;52.526;13.326;2023-04-19T08:26:32;9.40;;;2.03;;
15748;SDS011;7976;52.526;13.326;2023-04-19T08:29:00;10.38;;;3.05;;
15748;SDS011;7976;52.526;13.326;2023-04-19T08:31:27;10.82;;;2.60;;
15748;SDS011;7976;52.526;13.326;2023-04-19T08:33:55;11.45;;;2.80;;
15748;SDS011;7976;52.526;13.326;2023-04-19T08:36:24;8.55;;;2.55;;
15748;SDS011;7976;52.526;13.326;2023-04-19T08:38:51;10.25;;;2.15;;
15748;SDS011;7976;52.526;13.326;2023-04-19T08:41:18;9.43;;;2.67;;
15748;SDS011;7976;52.526;13.326;2023-04-19T08:43:47;11.45;;;2.55;;
15748;SDS011;7976;52.526;13.326;2023-04-19T08:46:19;8.75;;;2.50;;
15748;SDS011;7976;52.526;13.326;2023-04-19T08:48:49;12.98;;;3.20;;
15748;SDS011;7976;52.526;13.326;2023-04-19T08:51:16;14.60;;;3.50;;
15748;SDS011;7976;52.526;13.326;2023-04-19T08:53:44;10.80;;;2.90;;
15748;SDS011;7976;52.526;13.326;2023-04-19T08:56:13;11.25;;;2.65;;
15748;SDS011;7976;52.526;13.326;2023-04-19T08:58:40;12.05;;;3.05;;
15748;SDS011;7976;52.526;13.326;2023-04-19T09:01:07;9.68;;;3.45;;
15748;SDS011;7976;52.526;13.326;2023-04-19T09:03:36;10.30;;;2.70;;
15748;SDS011;7976;52.526;13.326;2023-04-19T09:06:09;12.32;;;2.67;;
15748;SDS011;7976;52.526;13.326;2023-04-19T09:08:38;11.98;;;2.90;;
15748;SDS011;7976;52.526;13.326;2023-04-19T09:11:06;9.13;;;2.75;;
15748;SDS011;7976;52.526;13.326;2023-04-19T09:13:33;8.95;;;2.38;;
15748;SDS011;7976;52.526;13.326;2023-04-19T09:16:02;9.18;;;2.40;;
15748;SDS011;7976;52.526;13.326;2023-04-19T09:18:31;10.70;;;2.97;;
15748;SDS011;7976;52.526;13.326;2023-04-19T09:21:00;8.27;;;2.70;;
15748;SDS011;7976;52.526;13.326;2023-04-19T09:23:27;8.77;;;2.63;;
15748;SDS011;7976;52.526;13.326;2023-04-19T09:25:55;16.55;;;4.35;;
15748;SDS011;7976;52.526;13.326;2023-04-19T09:28:24;11.15;;;3.20;;
15748;SDS011;7976;52.526;13.326;2023-04-19T09:30:51;9.10;;;2.50;;
15748;SDS011;7976;52.526;13.326;2023-04-19T09:33:30;13.30;;;2.92;;
15748;SDS011;7976;52.526;13.326;2023-04-19T09:35:59;12.20;;;4.25;;
15748;SDS011;7976;52.526;13.326;2023-04-19T09:38:28;12.88;;;3.38;;
15748;SDS011;7976;52.526;13.326;2023-04-19T09:41:04;10.70;;;3.08;;
15748;SDS011;7976;52.526;13.326;2023-04-19T09:43:32;12.57;;;3.33;;
15748;SDS011;7976;52.526;13.326;2023-04-19T09:45:59;14.32;;;4.43;;
15748;SDS011;7976;52.526;13.326;2023-04-19T09:48:26;10.40;;;3.15;;
15748;SDS011;7976;52.526;13.326;2023-04-19T09:50:54;10.70;;;2.90;;
15748;SDS011;7976;52.526;13.326;2023-04-19T09:53:25;8.30;;;2.67;;
15748;SDS011;7976;52.526;13.326;2023-04-19T09:55:53;12.77;;;3.85;;
15748;SDS011;7976;52.526;13.326;2023-04-19T09:58:20;16.80;;;5.97;;
15748;SDS011;7976;52.526;13.326;2023-04-19T10:00:47;15.68;;;4.38;;
15748;SDS011;7976;52.526;13.326;2023-04-19T10:03:17;10.05;;;3.13;;
15748;SDS011;7976;52.526;13.326;2023-04-19T10:05:45;37.70;;;17.73;;
15748;SDS011;7976;52.526;13.326;2023-04-19T10:08:14;11.18;;;4.55;;
15748;SDS011;7976;52.526;13.326;2023-04-19T10:10:53;11.38;;;3.53;;
15748;SDS011;7976;52.526;13.326;2023-04-19T10:13:21;16.00;;;5.07;;
15748;SDS011;7976;52.526;13.326;2023-04-19T10:15:50;13.55;;;4.68;;
15748;SDS011;7976;52.526;13.326;2023-04-19T10:18:17;12.25;;;4.22;;
15748;SDS011;7976;52.526;13.326;2023-04-19T10:20:46;15.48;;;4.30;;
15748;SDS011;7976;52.526;13.326;2023-04-19T10:23:22;16.92;;;4.75;;
15748;SDS011;7976;52.526;13.326;2023-04-19T10:25:54;14.32;;;5.32;;
15748;SDS011;7976;52.526;13.326;2023-04-19T10:28:23;15.68;;;5.78;;
15748;SDS011;7976;52.526;13.326;2023-04-19T10:30:53;11.85;;;4.07;;
15748;SDS011;7976;52.526;13.326;2023-04-19T10:33:25;12.00;;;4.32;;
15748;SDS011;7976;52.526;13.326;2023-04-19T10:35:54;9.25;;;3.53;;
15748;SDS011;7976;52.526;13.326;2023-04-19T10:38:34;12.80;;;3.70;;
15748;SDS011;7976;52.526;13.326;2023-04-19T10:41:05;11.02;;;2.95;;
15748;SDS011;7976;52.526;13.326;2023-04-19T10:43:38;12.55;;;3.72;;
15748;SDS011;7976;52.526;13.326;2023-04-19T10:46:06;11.65;;;3.47;;
15748;SDS011;7976;52.526;13.326;2023-04-19T10:48:49;9.35;;;3.03;;
15748;SDS011;7976;52.526;13.326;2023-04-19T10:51:19;15.20;;;4.57;;
15748;SDS011;7976;52.526;13.326;2023-04-19T10:53:52;10.52;;;3.60;;
15748;SDS011;7976;52.526;13.326;2023-04-19T10:59:27;9.27;;;2.63;;
15748;SDS011;7976;52.526;13.326;2023-04-19T11:01:56;17.58;;;6.85;;
15748;SDS011;7976;52.526;13.326;2023-04-19T11:07:28;19.20;;;7.50;;
15748;SDS011;7976;52.526;13.326;2023-04-19T11:10:04;13.65;;;4.47;;
15748;SDS011;7976;52.526;13.326;2023-04-19T11:12:34;17.10;;;5.45;;
15748;SDS011;7976;52.526;13.326;2023-04-19T11:15:01;33.30;;;13.35;;
15748;SDS011;7976;52.526;13.326;2023-04-19T11:17:33;37.75;;;13.77;;
15748;SDS011;7976;52.526;13.326;2023-04-19T11:20:03;18.52;;;7.30;;
15748;SDS011;7976;52.526;13.326;2023-04-19T11:22:32;14.82;;;5.55;;
15748;SDS011;7976;52.526;13.326;2023-04-19T11:25:04;10.90;;;3.10;;
15748;SDS011;7976;52.526;13.326;2023-04-19T11:27:37;13.60;;;3.22;;
15748;SDS011;7976;52.526;13.326;2023-04-19T11:30:07;11.98;;;3.58;;
15748;SDS011;7976;52.526;13.326;2023-04-19T11:32:36;12.43;;;3.20;;
15748;SDS011;7976;52.526;13.326;2023-04-19T11:35:10;15.18;;;3.53;;
15748;SDS011;7976;52.526;13.326;2023-04-19T11:37:37;10.35;;;3.55;;
15748;SDS011;7976;52.526;13.326;2023-04-19T11:40:05;12.30;;;3.53;;
15748;SDS011;7976;52.526;13.326;2023-04-19T11:42:33;10.45;;;3.10;;
15748;SDS011;7976;52.526;13.326;2023-04-19T11:45:03;16.02;;;3.70;;
15748;SDS011;7976;52.526;13.326;2023-04-19T11:47:31;12.10;;;3.10;;
15748;SDS011;7976;52.526;13.326;2023-04-19T11:52:56;8.63;;;2.92;;
15748;SDS011;7976;52.526;13.326;2023-04-19T11:55:23;10.13;;;3.08;;
15748;SDS011;7976;52.526;13.326;2023-04-19T11:57:50;12.95;;;4.25;;
15748;SDS011;7976;52.526;13.326;2023-04-19T12:00:25;13.60;;;3.95;;
15748;SDS011;7976;52.526;13.326;2023-04-19T12:02:53;11.57;;;4.20;;
15748;SDS011;7976;52.526;13.326;2023-04-19T12:05:21;10.13;;;2.92;;
15748;SDS011;7976;52.526;13.326;2023-04-19T12:08:01;9.60;;;3.17;;
15748;SDS011;7976;52.526;13.326;2023-04-19T12:10:32;9.00;;;2.75;;
15748;SDS011;7976;52.526;13.326;2023-04-19T12:13:00;10.27;;;2.70;;
15748;SDS011;7976;52.526;13.326;2023-04-19T12:15:44;12.88;;;3.20;;
15748;SDS011;7976;52.526;13.326;2023-04-19T12:18:13;9.82;;;3.00;;
15748;SDS011;7976;52.526;13.326;2023-04-19T12:20:42;11.80;;;3.15;;
15748;SDS011;7976;52.526;13.326;2023-04-19T12:23:11;9.52;;;3.05;;
15748;SDS011;7976;52.526;13.326;2023-04-19T12:25:39;11.85;;;3.20;;
15748;SDS011;7976;52.526;13.326;2023-04-19T12:28:07;13.27;;;3.05;;
15748;SDS011;7976;52.526;13.326;2023-04-19T12:30:34;13.07;;;2.90;;
15748;SDS011;7976;52.526;13.326;2023-04-19T12:33:03;10.35;;;3.15;;
15748;SDS011;7976;52.526;13.326;2023-04-19T12:35:31;12.10;;;4.00;;
15748;SDS011;7976;52.526;13.326;2023-04-19T12:37:59;14.35;;;4.38;;
15748;SDS011;7976;52.526;13.326;2023-04-19T12:40:26;12.85;;;3.97;;
15748;SDS011;7976;52.526;13.326;2023-04-19T12:42:55;12.10;;;3.72;;
15748;SDS011;7976;52.526;13.326;2023-04-19T12:45:22;13.57;;;4.05;;
15748;SDS011;7976;52.526;13.326;2023-04-19T12:47:49;9.77;;;3.15;;
15748;SDS011;7976;52.526;13.326;2023-04-19T12:50:17;21.27;;;5.97;;
15748;SDS011;7976;52.526;13.326;2023-04-19T12:52:44;15.10;;;4.35;;
15748;SDS011;7976;52.526;13.326;2023-04-19T12:55:11;14.38;;;5.57;;
15748;SDS011;7976;52.526;13.326;2023-04-19T12:57:38;12.27;;;4.82;;
15748;SDS011;7976;52.526;13.326;2023-04-19T13:00:06;11.00;;;3.63;;
15748;SDS011;7976;52.526;13.326;2023-04-19T13:02:35;9.35;;;3.58;;
15748;SDS011;7976;52.526;13.326;2023-04-19T13:05:02;12.27;;;3.83;;
15748;SDS011;7976;52.526;13.326;2023-04-19T13:07:31;9.13;;;3.45;;
15748;SDS011;7976;52.526;13.326;2023-04-19T13:09:58;12.27;;;4.78;;
15748;SDS011;7976;52.526;13.326;2023-04-19T13:12:25;10.27;;;3.65;;
15748;SDS011;7976;52.526;13.326;2023-04-19T13:14:52;12.80;;;3.22;;
15748;SDS011;7976;52.526;13.326;2023-04-19T13:17:20;13.07;;;4.00;;
15748;SDS011;7976;52.526;13.326;2023-04-19T13:19:46;10.18;;;3.17;;
15748;SDS011;7976;52.526;13.326;2023-04-19T13:22:13;11.85;;;3.55;;
15748;SDS011;7976;52.526;13.326;2023-04-19T13:24:42;17.75;;;7.03;;
15748;SDS011;7976;52.526;13.326;2023-04-19T13:27:09;14.82;;;3.88;;
15748;SDS011;7976;52.526;13.326;2023-04-19T13:29:36;10.70;;;3.40;;
15748;SDS011;7976;52.526;13.326;2023-04-19T13:32:03;12.45;;;3.97;;
15748;SDS011;7976;52.526;13.326;2023-04-19T13:34:31;8.90;;;3.58;;
15748;SDS011;7976;52.526;13.326;2023-04-19T13:36:58;10.75;;;3.22;;
15748;SDS011;7976;52.526;13.326;2023-04-19T13:39:25;7.72;;;2.90;;
15748;SDS011;7976;52.526;13.326;2023-04-19T13:41:53;8.50;;;3.05;;
15748;SDS011;7976;52.526;13.326;2023-04-19T13:44:20;15.77;;;4.47;;
15748;SDS011;7976;52.526;13.326;2023-04-19T13:46:47;20.00;;;8.18;;
15748;SDS011;7976;52.526;13.326;2023-04-19T13:49:13;31.60;;;14.38;;
15748;SDS011;7976;52.526;13.326;2023-04-19T13:51:40;25.52;;;11.57;;
15748;SDS011;7976;52.526;13.326;2023-04-19T13:54:07;17.52;;;6.63;;
15748;SDS011;7976;52.526;13.326;2023-04-19T13:56:34;12.25;;;3.95;;
15748;SDS011;7976;52.526;13.326;2023-04-19T13:59:02;11.57;;;4.40;;
15748;SDS011;7976;52.526;13.326;2023-04-19T14:01:29;13.82;;;4.72;;
15748;SDS011;7976;52.526;13.326;2023-04-19T14:03:55;13.10;;;5.30;;
15748;SDS011;7976;52.526;13.326;2023-04-19T14:06:22;12.20;;;4.10;;
15748;SDS011;7976;52.526;13.326;2023-04-19T14:08:49;16.77;;;6.32;;
15748;SDS011;7976;52.526;13.326;2023-04-19T14:11:16;19.35;;;6.05;;
15748;SDS011;7976;52.526;13.326;2023-04-19T14:13:43;13.15;;;3.72;;
15748;SDS011;7976;52.526;13.326;2023-04-19T14:16:11;12.65;;;5.18;;
15748;SDS011;7976;52.526;13.326;2023-04-19T14:18:37;15.55;;;5.32;;
15748;SDS011;7976;52.526;13.326;2023-04-19T14:21:04;18.00;;;5.97;;
15748;SDS011;7976;52.526;13.326;2023-04-19T14:23:31;14.45;;;5.10;;
15748;SDS011;7976;52.526;13.326;2023-04-19T14:25:58;27.83;;;13.32;;
15748;SDS011;7976;52.526;13.326;2023-04-19T14:28:26;17.60;;;7.00;;
15748;SDS011;7976;52.526;13.326;2023-04-19T14:30:53;19.00;;;6.18;;
15748;SDS011;7976;52.526;13.326;2023-04-19T14:33:22;15.95;;;5.00;;
15748;SDS011;7976;52.526;13.326;2023-04-19T14:35:49;12.13;;;4.10;;
15748;SDS011;7976;52.526;13.326;2023-04-19T14:38:16;12.52;;;4.15;;
15748;SDS011;7976;52.526;13.326;2023-04-19T14:40:42;10.90;;;3.70;;
15748;SDS011;7976;52.526;13.326;2023-04-19T14:43:13;12.45;;;3.78;;
15748;SDS011;7976;52.526;13.326;2023-04-19T14:45:41;13.93;;;4.93;;
15748;SDS011;7976;52.526;13.326;2023-04-19T14:48:08;12.57;;;4.25;;
15748;SDS011;7976;52.526;13.326;2023-04-19T14:50:36;13.18;;;4.43;;
15748;SDS011;7976;52.526;13.326;2023-04-19T14:53:03;13.30;;;4.40;;
15748;SDS011;7976;52.526;13.326;2023-04-19T14:55:30;14.18;;;5.38;;